sensor_id;sensor_type;location;lat;lon;timestamp;pressure;altitude;pressure_sealevel;temperature;humidity
82379;BME280;72008;48.140;11.614;2023-12-04T00:00:51;95638.03;;;-2.85;75.44
82379;BME280;72008;48.140;11.614;2023-12-04T00:01:52;95634.63;;;-2.76;77.09
82379;BME280;72008;48.140;11.614;2023-12-04T00:02:52;95638.25;;;-2.60;77.60
82379;BME280;72008;48.140;11.614;2023-12-04T00:03:52;95635.59;;;-2.55;73.66
82379;BME280;72008;48.140;11.614;2023-12-04T00:04:53;95641.59;;;-2.75;73.33
82379;BME280;72008;48.140;11.614;2023-12-04T00:05:53;95637.72;;;-2.89;69.95
82379;BME280;72008;48.140;11.614;2023-12-04T00:06:54;95638.91;;;-3.07;72.98
82379;BME280;72008;48.140;11.614;2023-12-04T00:07:54;95630.06;;;-3.07;70.49
82379;BME280;72008;48.140;11.614;2023-12-04T00:08:54;95634.34;;;-3.06;77.74
82379;BME280;72008;48.140;11.614;2023-12-04T00:09:55;95625.59;;;-3.24;73.05
82379;BME280;72008;48.140;11.614;2023-12-04T00:10:55;95632.81;;;-2.97;75.87
82379;BME280;72008;48.140;11.614;2023-12-04T00:11:56;95628.41;;;-2.81;74.27
82379;BME280;72008;48.140;11.614;2023-12-04T00:12:56;95622.94;;;-2.64;73.96
82379;BME280;72008;48.140;11.614;2023-12-04T00:13:56;95627.34;;;-2.48;79.53
82379;BME280;72008;48.140;11.614;2023-12-04T00:14:57;95623.03;;;-2.49;74.17
82379;BME280;72008;48.140;11.614;2023-12-04T00:15:57;95625.88;;;-2.66;72.41
82379;BME280;72008;48.140;11.614;2023-12-04T00:16:58;95626.53;;;-2.48;77.92
82379;BME280;72008;48.140;11.614;2023-12-04T00:17:58;95621.66;;;-2.52;74.23
82379;BME280;72008;48.140;11.614;2023-12-04T00:18:59;95621.50;;;-2.40;75.63
82379;BME280;72008;48.140;11.614;2023-12-04T00:19:59;95620.50;;;-2.34;74.08
82379;BME280;72008;48.140;11.614;2023-12-04T00:21:00;95615.19;;;-2.23;79.56
82379;BME280;72008;48.140;11.614;2023-12-04T00:22:00;95612.97;;;-2.32;74.61
82379;BME280;72008;48.140;11.614;2023-12-04T00:23:00;95622.09;;;-2.33;71.99
82379;BME280;72008;48.140;11.614;2023-12-04T00:24:01;95618.69;;;-2.60;73.74
82379;BME280;72008;48.140;11.614;2023-12-04T00:25:02;95623.25;;;-2.56;77.80
82379;BME280;72008;48.140;11.614;2023-12-04T00:26:03;95624.00;;;-2.65;71.29
82379;BME280;72008;48.140;11.614;2023-12-04T00:27:04;95613.63;;;-2.52;79.09
82379;BME280;72008;48.140;11.614;2023-12-04T00:28:04;95610.56;;;-2.33;75.95
82379;BME280;72008;48.140;11.614;2023-12-04T00:29:05;95603.19;;;-2.53;70.77
82379;BME280;72008;48.140;11.614;2023-12-04T00:30:05;95611.13;;;-2.68;74.84
82379;BME280;72008;48.140;11.614;2023-12-04T00:31:06;95604.16;;;-2.64;72.17
82379;BME280;72008;48.140;11.614;2023-12-04T00:32:06;95597.88;;;-2.48;77.44
82379;BME280;72008;48.140;11.614;2023-12-04T00:33:07;95603.22;;;-2.48;73.08
82379;BME280;72008;48.140;11.614;2023-12-04T00:34:07;95606.47;;;-2.41;76.50
82379;BME280;72008;48.140;11.614;2023-12-04T00:35:08;95594.91;;;-2.46;75.24
82379;BME280;72008;48.140;11.614;2023-12-04T00:36:09;95599.84;;;-2.70;68.85
82379;BME280;72008;48.140;11.614;2023-12-04T00:37:10;95601.16;;;-2.73;73.57
82379;BME280;72008;48.140;11.614;2023-12-04T00:38:10;95598.75;;;-2.75;77.21
82379;BME280;72008;48.140;11.614;2023-12-04T00:39:11;95600.41;;;-2.68;72.43
82379;BME280;72008;48.140;11.614;2023-12-04T00:40:11;95604.91;;;-2.74;71.55
82379;BME280;72008;48.140;11.614;2023-12-04T00:41:11;95606.28;;;-2.66;71.15
82379;BME280;72008;48.140;11.614;2023-12-04T00:42:12;95606.16;;;-2.87;76.07
82379;BME280;72008;48.140;11.614;2023-12-04T00:43:12;95606.97;;;-2.86;71.21
82379;BME280;72008;48.140;11.614;2023-12-04T00:44:13;95609.81;;;-2.98;70.93
82379;BME280;72008;48.140;11.614;2023-12-04T00:45:13;95605.41;;;-2.77;73.39
82379;BME280;72008;48.140;11.614;2023-12-04T00:46:13;95606.22;;;-2.77;71.00
82379;BME280;72008;48.140;11.614;2023-12-04T00:47:14;95602.69;;;-2.82;73.38
82379;BME280;72008;48.140;11.614;2023-12-04T00:48:14;95606.91;;;-2.91;72.46
82379;BME280;72008;48.140;11.614;2023-12-04T00:49:15;95599.38;;;-2.62;77.46
82379;BME280;72008;48.140;11.614;2023-12-04T00:50:15;95612.44;;;-2.71;74.57
82379;BME280;72008;48.140;11.614;2023-12-04T00:51:15;95607.13;;;-2.66;74.05
82379;BME280;72008;48.140;11.614;2023-12-04T00:52:16;95609.94;;;-2.83;71.40
82379;BME280;72008;48.140;11.614;2023-12-04T00:53:16;95609.44;;;-3.07;68.79
82379;BME280;72008;48.140;11.614;2023-12-04T00:54:17;95608.28;;;-2.89;72.43
82379;BME280;72008;48.140;11.614;2023-12-04T00:55:17;95600.75;;;-2.92;74.70
82379;BME280;72008;48.140;11.614;2023-12-04T00:56:18;95601.38;;;-2.80;74.65
82379;BME280;72008;48.140;11.614;2023-12-04T00:57:18;95595.50;;;-2.77;75.60
82379;BME280;72008;48.140;11.614;2023-12-04T00:58:19;95603.31;;;-2.75;75.26
82379;BME280;72008;48.140;11.614;2023-12-04T00:59:19;95601.38;;;-2.80;69.64
82379;BME280;72008;48.140;11.614;2023-12-04T01:00:19;95603.47;;;-2.87;72.54
82379;BME280;72008;48.140;11.614;2023-12-04T01:01:20;95601.94;;;-2.78;68.84
82379;BME280;72008;48.140;11.614;2023-12-04T01:02:20;95597.44;;;-2.99;75.06
82379;BME280;72008;48.140;11.614;2023-12-04T01:03:21;95596.41;;;-2.66;76.54
82379;BME280;72008;48.140;11.614;2023-12-04T01:04:21;95595.16;;;-2.53;75.27
82379;BME280;72008;48.140;11.614;2023-12-04T01:05:22;95591.56;;;-2.64;72.73
82379;BME280;72008;48.140;11.614;2023-12-04T01:06:23;95582.69;;;-2.75;70.38
82379;BME280;72008;48.140;11.614;2023-12-04T01:07:23;95584.28;;;-2.73;72.81
82379;BME280;72008;48.140;11.614;2023-12-04T01:08:24;95591.44;;;-2.47;80.79
82379;BME280;72008;48.140;11.614;2023-12-04T01:09:24;95584.19;;;-2.46;72.29
82379;BME280;72008;48.140;11.614;2023-12-04T01:10:25;95580.66;;;-2.57;72.72
82379;BME280;72008;48.140;11.614;2023-12-04T01:11:25;95581.41;;;-2.62;76.29
82379;BME280;72008;48.140;11.614;2023-12-04T01:12:26;95582.06;;;-2.82;70.47
82379;BME280;72008;48.140;11.614;2023-12-04T01:13:26;95580.09;;;-2.59;75.74
82379;BME280;72008;48.140;11.614;2023-12-04T01:14:27;95578.44;;;-2.65;72.08
82379;BME280;72008;48.140;11.614;2023-12-04T01:15:27;95574.59;;;-2.80;70.68
82379;BME280;72008;48.140;11.614;2023-12-04T01:16:28;95576.59;;;-2.97;72.89
82379;BME280;72008;48.140;11.614;2023-12-04T01:17:28;95574.66;;;-2.69;74.57
82379;BME280;72008;48.140;11.614;2023-12-04T01:18:28;95570.84;;;-2.79;70.99
82379;BME280;72008;48.140;11.614;2023-12-04T01:19:29;95578.81;;;-2.89;70.56
82379;BME280;72008;48.140;11.614;2023-12-04T01:20:29;95571.97;;;-2.69;77.40
82379;BME280;72008;48.140;11.614;2023-12-04T01:21:30;95578.16;;;-2.69;71.00
82379;BME280;72008;48.140;11.614;2023-12-04T01:22:30;95580.13;;;-2.91;71.46
82379;BME280;72008;48.140;11.614;2023-12-04T01:23:30;95588.28;;;-2.76;72.84
82379;BME280;72008;48.140;11.614;2023-12-04T01:24:31;95572.16;;;-2.81;69.62
82379;BME280;72008;48.140;11.614;2023-12-04T01:25:32;95577.03;;;-2.73;70.59
82379;BME280;72008;48.140;11.614;2023-12-04T01:26:32;95574.59;;;-2.80;70.86
82379;BME280;72008;48.140;11.614;2023-12-04T01:27:33;95570.81;;;-2.84;74.77
82379;BME280;72008;48.140;11.614;2023-12-04T01:28:33;95583.94;;;-2.82;72.23
82379;BME280;72008;48.140;11.614;2023-12-04T01:29:33;95582.00;;;-2.92;72.57
82379;BME280;72008;48.140;11.614;2023-12-04T01:30:34;95581.19;;;-2.92;69.48
82379;BME280;72008;48.140;11.614;2023-12-04T01:31:34;95576.00;;;-2.72;77.00
82379;BME280;72008;48.140;11.614;2023-12-04T01:32:35;95578.19;;;-2.64;73.03
82379;BME280;72008;48.140;11.614;2023-12-04T01:33:35;95573.91;;;-2.65;70.34
82379;BME280;72008;48.140;11.614;2023-12-04T01:34:35;95574.19;;;-2.61;74.35
82379;BME280;72008;48.140;11.614;2023-12-04T01:35:36;95569.81;;;-2.72;72.88
82379;BME280;72008;48.140;11.614;2023-12-04T01:36:40;95572.66;;;-2.89;69.74
82379;BME280;72008;48.140;11.614;2023-12-04T01:37:40;95563.41;;;-2.71;72.83
82379;BME280;72008;48.140;11.614;2023-12-04T01:38:41;95562.09;;;-2.64;71.59
82379;BME280;72008;48.140;11.614;2023-12-04T01:39:41;95566.94;;;-2.61;73.55
82379;BME280;72008;48.140;11.614;2023-12-04T01:40:42;95559.28;;;-2.47;74.88
82379;BME280;72008;48.140;11.614;2023-12-04T01:41:42;95564.66;;;-2.42;74.47
82379;BME280;72008;48.140;11.614;2023-12-04T01:42:42;95570.56;;;-2.40;74.71
82379;BME280;72008;48.140;11.614;2023-12-04T01:43:43;95570.31;;;-2.38;72.96
82379;BME280;72008;48.140;11.614;2023-12-04T01:44:43;95564.81;;;-2.59;68.55
82379;BME280;72008;48.140;11.614;2023-12-04T01:45:44;95562.38;;;-2.65;75.27
82379;BME280;72008;48.140;11.614;2023-12-04T01:46:45;95559.03;;;-2.83;69.11
82379;BME280;72008;48.140;11.614;2023-12-04T01:47:46;95566.00;;;-3.14;73.01
82379;BME280;72008;48.140;11.614;2023-12-04T01:48:46;95555.25;;;-2.87;73.82
82379;BME280;72008;48.140;11.614;2023-12-04T01:49:47;95545.69;;;-2.78;70.69
82379;BME280;72008;48.140;11.614;2023-12-04T01:50:48;95551.94;;;-2.62;73.37
82379;BME280;72008;48.140;11.614;2023-12-04T01:51:49;95549.88;;;-2.49;72.55
82379;BME280;72008;48.140;11.614;2023-12-04T01:52:52;95541.50;;;-2.58;69.98
82379;BME280;72008;48.140;11.614;2023-12-04T01:53:55;95550.69;;;-2.49;73.61
82379;BME280;72008;48.140;11.614;2023-12-04T01:54:59;95541.59;;;-2.43;76.58
82379;BME280;72008;48.140;11.614;2023-12-04T01:55:59;95541.06;;;-2.40;71.96
82379;BME280;72008;48.140;11.614;2023-12-04T01:57:02;95537.38;;;-2.29;74.64
82379;BME280;72008;48.140;11.614;2023-12-04T01:58:04;95536.34;;;-2.22;77.51
82379;BME280;72008;48.140;11.614;2023-12-04T01:59:06;95530.69;;;-2.26;78.53
82379;BME280;72008;48.140;11.614;2023-12-04T02:00:07;95536.06;;;-2.26;77.99
82379;BME280;72008;48.140;11.614;2023-12-04T02:01:07;95531.47;;;-2.36;74.81
82379;BME280;72008;48.140;11.614;2023-12-04T02:02:09;95522.22;;;-2.60;68.67
82379;BME280;72008;48.140;11.614;2023-12-04T02:03:10;95527.31;;;-2.59;76.56
82379;BME280;72008;48.140;11.614;2023-12-04T02:04:11;95524.19;;;-2.45;76.29
82379;BME280;72008;48.140;11.614;2023-12-04T02:05:13;95525.75;;;-2.49;76.04
82379;BME280;72008;48.140;11.614;2023-12-04T02:06:16;95525.56;;;-2.38;78.94
82379;BME280;72008;48.140;11.614;2023-12-04T02:07:17;95525.28;;;-2.41;74.60
82379;BME280;72008;48.140;11.614;2023-12-04T02:08:18;95518.81;;;-2.45;73.54
82379;BME280;72008;48.140;11.614;2023-12-04T02:09:18;95523.91;;;-2.44;78.02
82379;BME280;72008;48.140;11.614;2023-12-04T02:10:19;95517.47;;;-2.48;77.28
82379;BME280;72008;48.140;11.614;2023-12-04T02:11:20;95515.09;;;-2.34;79.70
82379;BME280;72008;48.140;11.614;2023-12-04T02:12:20;95513.19;;;-2.44;73.42
82379;BME280;72008;48.140;11.614;2023-12-04T02:13:21;95509.16;;;-2.46;74.85
82379;BME280;72008;48.140;11.614;2023-12-04T02:14:22;95504.31;;;-2.49;75.66
82379;BME280;72008;48.140;11.614;2023-12-04T02:15:22;95502.44;;;-2.54;79.08
82379;BME280;72008;48.140;11.614;2023-12-04T02:16:26;95498.41;;;-2.52;79.53
82379;BME280;72008;48.140;11.614;2023-12-04T02:17:28;95490.06;;;-2.60;74.13
82379;BME280;72008;48.140;11.614;2023-12-04T02:18:29;95482.84;;;-2.60;77.89
82379;BME280;72008;48.140;11.614;2023-12-04T02:19:30;95488.19;;;-2.60;77.83
82379;BME280;72008;48.140;11.614;2023-12-04T02:20:34;95485.53;;;-2.55;77.33
82379;BME280;72008;48.140;11.614;2023-12-04T02:21:35;95473.69;;;-2.64;76.81
82379;BME280;72008;48.140;11.614;2023-12-04T02:22:37;95480.06;;;-2.75;73.16
82379;BME280;72008;48.140;11.614;2023-12-04T02:23:37;95476.47;;;-2.91;71.76
82379;BME280;72008;48.140;11.614;2023-12-04T02:24:38;95476.56;;;-2.81;78.41
82379;BME280;72008;48.140;11.614;2023-12-04T02:25:39;95473.31;;;-2.83;77.25
82379;BME280;72008;48.140;11.614;2023-12-04T02:26:52;95474.34;;;-2.89;74.84
82379;BME280;72008;48.140;11.614;2023-12-04T02:27:59;95469.59;;;-2.77;75.28
82379;BME280;72008;48.140;11.614;2023-12-04T02:29:07;95469.75;;;-2.99;73.07
82379;BME280;72008;48.140;11.614;2023-12-04T02:30:11;95474.78;;;-3.02;71.53
82379;BME280;72008;48.140;11.614;2023-12-04T02:31:13;95475.16;;;-2.88;77.10
82379;BME280;72008;48.140;11.614;2023-12-04T02:32:19;95472.03;;;-2.70;78.50
82379;BME280;72008;48.140;11.614;2023-12-04T02:33:24;95476.47;;;-2.91;74.95
82379;BME280;72008;48.140;11.614;2023-12-04T02:34:27;95480.50;;;-2.88;75.80
82379;BME280;72008;48.140;11.614;2023-12-04T02:35:32;95472.50;;;-2.83;77.69
82379;BME280;72008;48.140;11.614;2023-12-04T02:36:36;95472.25;;;-2.82;75.44
82379;BME280;72008;48.140;11.614;2023-12-04T02:37:39;95473.56;;;-2.84;77.55
82379;BME280;72008;48.140;11.614;2023-12-04T02:38:41;95475.66;;;-2.91;77.52
82379;BME280;72008;48.140;11.614;2023-12-04T02:39:42;95475.97;;;-2.88;79.73
82379;BME280;72008;48.140;11.614;2023-12-04T02:40:43;95480.22;;;-2.92;74.68
82379;BME280;72008;48.140;11.614;2023-12-04T02:41:44;95474.91;;;-2.82;77.81
82379;BME280;72008;48.140;11.614;2023-12-04T02:42:44;95474.19;;;-2.72;78.32
82379;BME280;72008;48.140;11.614;2023-12-04T02:43:48;95474.97;;;-2.77;79.41
82379;BME280;72008;48.140;11.614;2023-12-04T02:44:48;95472.78;;;-2.80;78.54
82379;BME280;72008;48.140;11.614;2023-12-04T02:45:49;95468.00;;;-2.78;78.07
82379;BME280;72008;48.140;11.614;2023-12-04T02:46:50;95471.19;;;-2.76;78.34
82379;BME280;72008;48.140;11.614;2023-12-04T02:47:50;95469.03;;;-2.79;77.14
82379;BME280;72008;48.140;11.614;2023-12-04T02:48:51;95458.84;;;-2.82;79.09
82379;BME280;72008;48.140;11.614;2023-12-04T02:49:51;95471.06;;;-2.96;73.04
82379;BME280;72008;48.140;11.614;2023-12-04T02:50:52;95470.63;;;-3.20;74.61
82379;BME280;72008;48.140;11.614;2023-12-04T02:51:52;95469.38;;;-3.12;75.41
82379;BME280;72008;48.140;11.614;2023-12-04T02:52:52;95464.38;;;-2.99;76.29
82379;BME280;72008;48.140;11.614;2023-12-04T02:53:53;95472.16;;;-2.97;78.84
82379;BME280;72008;48.140;11.614;2023-12-04T02:54:53;95467.59;;;-2.97;78.88
82379;BME280;72008;48.140;11.614;2023-12-04T02:55:54;95471.31;;;-3.03;80.03
82379;BME280;72008;48.140;11.614;2023-12-04T02:56:54;95474.78;;;-3.02;77.57
82379;BME280;72008;48.140;11.614;2023-12-04T02:57:55;95463.28;;;-3.03;74.47
82379;BME280;72008;48.140;11.614;2023-12-04T02:58:55;95470.03;;;-2.95;76.82
82379;BME280;72008;48.140;11.614;2023-12-04T02:59:55;95466.28;;;-2.94;78.25
82379;BME280;72008;48.140;11.614;2023-12-04T03:00:56;95471.69;;;-2.89;79.80
82379;BME280;72008;48.140;11.614;2023-12-04T03:01:56;95466.75;;;-3.02;76.68
82379;BME280;72008;48.140;11.614;2023-12-04T03:02:57;95459.75;;;-3.08;74.46
82379;BME280;72008;48.140;11.614;2023-12-04T03:03:57;95464.06;;;-3.02;78.65
82379;BME280;72008;48.140;11.614;2023-12-04T03:04:57;95464.38;;;-2.99;79.28
82379;BME280;72008;48.140;11.614;2023-12-04T03:05:58;95457.16;;;-2.93;80.56
82379;BME280;72008;48.140;11.614;2023-12-04T03:06:58;95458.16;;;-3.09;75.19
82379;BME280;72008;48.140;11.614;2023-12-04T03:07:59;95457.69;;;-3.01;78.82
82379;BME280;72008;48.140;11.614;2023-12-04T03:08:59;95449.41;;;-2.94;80.71
82379;BME280;72008;48.140;11.614;2023-12-04T03:10:00;95444.28;;;-3.01;71.95
82379;BME280;72008;48.140;11.614;2023-12-04T03:11:01;95440.53;;;-3.00;79.14
82379;BME280;72008;48.140;11.614;2023-12-04T03:12:02;95444.81;;;-2.99;76.38
82379;BME280;72008;48.140;11.614;2023-12-04T03:13:02;95438.53;;;-3.20;71.38
82379;BME280;72008;48.140;11.614;2023-12-04T03:14:03;95440.00;;;-3.39;73.47
82379;BME280;72008;48.140;11.614;2023-12-04T03:15:04;95446.41;;;-3.40;74.96
82379;BME280;72008;48.140;11.614;2023-12-04T03:16:04;95432.56;;;-3.32;74.14
82379;BME280;72008;48.140;11.614;2023-12-04T03:17:05;95431.88;;;-3.50;74.50
82379;BME280;72008;48.140;11.614;2023-12-04T03:18:05;95431.38;;;-3.47;74.96
82379;BME280;72008;48.140;11.614;2023-12-04T03:19:06;95423.38;;;-3.41;75.61
82379;BME280;72008;48.140;11.614;2023-12-04T03:20:07;95429.97;;;-3.54;72.44
82379;BME280;72008;48.140;11.614;2023-12-04T03:21:07;95427.78;;;-3.62;72.81
82379;BME280;72008;48.140;11.614;2023-12-04T03:22:08;95421.41;;;-3.56;73.83
82379;BME280;72008;48.140;11.614;2023-12-04T03:23:08;95415.63;;;-3.43;78.73
82379;BME280;72008;48.140;11.614;2023-12-04T03:24:08;95418.88;;;-3.36;74.72
82379;BME280;72008;48.140;11.614;2023-12-04T03:25:09;95418.31;;;-3.38;75.84
82379;BME280;72008;48.140;11.614;2023-12-04T03:26:09;95416.50;;;-3.32;77.20
82379;BME280;72008;48.140;11.614;2023-12-04T03:27:10;95418.78;;;-3.46;77.63
82379;BME280;72008;48.140;11.614;2023-12-04T03:28:10;95417.78;;;-3.40;78.34
82379;BME280;72008;48.140;11.614;2023-12-04T03:29:10;95426.88;;;-3.41;73.18
82379;BME280;72008;48.140;11.614;2023-12-04T03:30:11;95415.53;;;-3.53;71.34
82379;BME280;72008;48.140;11.614;2023-12-04T03:31:12;95418.03;;;-3.41;79.81
82379;BME280;72008;48.140;11.614;2023-12-04T03:32:12;95418.59;;;-3.34;75.31
82379;BME280;72008;48.140;11.614;2023-12-04T03:33:12;95414.56;;;-3.42;76.34
82379;BME280;72008;48.140;11.614;2023-12-04T03:34:13;95413.66;;;-3.53;75.75
82379;BME280;72008;48.140;11.614;2023-12-04T03:35:13;95416.72;;;-3.71;76.39
82379;BME280;72008;48.140;11.614;2023-12-04T03:36:14;95407.06;;;-3.77;73.54
82379;BME280;72008;48.140;11.614;2023-12-04T03:37:14;95408.19;;;-3.68;77.33
82379;BME280;72008;48.140;11.614;2023-12-04T03:38:15;95407.44;;;-3.63;75.98
82379;BME280;72008;48.140;11.614;2023-12-04T03:39:15;95408.31;;;-3.85;69.05
82379;BME280;72008;48.140;11.614;2023-12-04T03:40:16;95408.34;;;-3.80;76.32
82379;BME280;72008;48.140;11.614;2023-12-04T03:41:17;95403.13;;;-3.64;77.73
82379;BME280;72008;48.140;11.614;2023-12-04T03:42:17;95397.31;;;-3.89;69.61
82379;BME280;72008;48.140;11.614;2023-12-04T03:43:18;95407.09;;;-3.72;79.03
82379;BME280;72008;48.140;11.614;2023-12-04T03:44:18;95408.78;;;-3.61;78.63
82379;BME280;72008;48.140;11.614;2023-12-04T03:45:19;95413.53;;;-3.68;73.92
82379;BME280;72008;48.140;11.614;2023-12-04T03:46:19;95406.88;;;-3.66;77.74
82379;BME280;72008;48.140;11.614;2023-12-04T03:47:19;95410.34;;;-3.65;76.73
82379;BME280;72008;48.140;11.614;2023-12-04T03:48:20;95404.78;;;-3.63;77.37
82379;BME280;72008;48.140;11.614;2023-12-04T03:49:20;95401.53;;;-3.66;73.32
82379;BME280;72008;48.140;11.614;2023-12-04T03:50:21;95402.56;;;-3.72;70.73
82379;BME280;72008;48.140;11.614;2023-12-04T03:51:21;95400.50;;;-3.92;72.57
82379;BME280;72008;48.140;11.614;2023-12-04T03:52:22;95404.22;;;-3.66;79.24
82379;BME280;72008;48.140;11.614;2023-12-04T03:53:23;95406.09;;;-3.66;75.33
82379;BME280;72008;48.140;11.614;2023-12-04T03:54:23;95396.97;;;-3.65;75.81
82379;BME280;72008;48.140;11.614;2023-12-04T03:55:24;95404.22;;;-3.66;74.19
82379;BME280;72008;48.140;11.614;2023-12-04T03:56:24;95403.47;;;-3.56;77.54
82379;BME280;72008;48.140;11.614;2023-12-04T03:57:24;95402.72;;;-3.46;74.38
82379;BME280;72008;48.140;11.614;2023-12-04T03:58:25;95398.72;;;-3.49;70.64
82379;BME280;72008;48.140;11.614;2023-12-04T03:59:25;95398.97;;;-3.50;74.69
82379;BME280;72008;48.140;11.614;2023-12-04T04:00:26;95397.13;;;-3.45;77.56
82379;BME280;72008;48.140;11.614;2023-12-04T04:01:26;95402.44;;;-3.55;75.00
82379;BME280;72008;48.140;11.614;2023-12-04T04:02:27;95397.03;;;-3.60;75.56
82379;BME280;72008;48.140;11.614;2023-12-04T04:03:27;95392.44;;;-3.64;77.56
82379;BME280;72008;48.140;11.614;2023-12-04T04:04:28;95392.16;;;-3.68;76.73
82379;BME280;72008;48.140;11.614;2023-12-04T04:05:28;95393.19;;;-4.01;74.58
82379;BME280;72008;48.140;11.614;2023-12-04T04:06:29;95387.00;;;-4.07;74.60
82379;BME280;72008;48.140;11.614;2023-12-04T04:07:29;95390.38;;;-3.90;75.55
82379;BME280;72008;48.140;11.614;2023-12-04T04:08:30;95394.25;;;-3.75;75.34
82379;BME280;72008;48.140;11.614;2023-12-04T04:09:30;95393.84;;;-3.89;75.58
82379;BME280;72008;48.140;11.614;2023-12-04T04:10:30;95393.69;;;-3.77;74.87
82379;BME280;72008;48.140;11.614;2023-12-04T04:11:31;95401.69;;;-3.77;72.74
82379;BME280;72008;48.140;11.614;2023-12-04T04:12:31;95385.06;;;-3.84;76.14
82379;BME280;72008;48.140;11.614;2023-12-04T04:13:32;95396.41;;;-3.67;78.72
82379;BME280;72008;48.140;11.614;2023-12-04T04:14:32;95391.63;;;-3.97;74.96
82379;BME280;72008;48.140;11.614;2023-12-04T04:15:32;95382.50;;;-4.01;73.60
82379;BME280;72008;48.140;11.614;2023-12-04T04:16:33;95388.16;;;-3.98;72.78
82379;BME280;72008;48.140;11.614;2023-12-04T04:17:33;95381.78;;;-3.92;72.57
82379;BME280;72008;48.140;11.614;2023-12-04T04:18:34;95390.09;;;-3.88;70.80
82379;BME280;72008;48.140;11.614;2023-12-04T04:19:35;95374.63;;;-3.86;76.60
82379;BME280;72008;48.140;11.614;2023-12-04T04:20:35;95371.69;;;-3.84;73.32
82379;BME280;72008;48.140;11.614;2023-12-04T04:21:39;95372.53;;;-3.79;75.22
82379;BME280;72008;48.140;11.614;2023-12-04T04:22:39;95372.22;;;-3.82;75.18
82379;BME280;72008;48.140;11.614;2023-12-04T04:23:40;95373.00;;;-3.87;75.08
82379;BME280;72008;48.140;11.614;2023-12-04T04:24:40;95375.25;;;-3.74;78.15
82379;BME280;72008;48.140;11.614;2023-12-04T04:25:41;95372.09;;;-3.66;76.44
82379;BME280;72008;48.140;11.614;2023-12-04T04:26:41;95372.56;;;-3.74;75.40
82379;BME280;72008;48.140;11.614;2023-12-04T04:27:41;95366.31;;;-3.90;72.28
82379;BME280;72008;48.140;11.614;2023-12-04T04:28:42;95370.59;;;-4.16;71.03
82379;BME280;72008;48.140;11.614;2023-12-04T04:29:42;95372.06;;;-4.30;68.67
82379;BME280;72008;48.140;11.614;2023-12-04T04:30:43;95363.75;;;-4.33;66.79
82379;BME280;72008;48.140;11.614;2023-12-04T04:31:43;95361.72;;;-4.75;67.62
82379;BME280;72008;48.140;11.614;2023-12-04T04:32:43;95364.97;;;-4.46;72.61
82379;BME280;72008;48.140;11.614;2023-12-04T04:33:44;95365.66;;;-4.29;74.40
82379;BME280;72008;48.140;11.614;2023-12-04T04:34:44;95364.47;;;-4.43;66.90
82379;BME280;72008;48.140;11.614;2023-12-04T04:35:45;95361.88;;;-4.06;76.56
82379;BME280;72008;48.140;11.614;2023-12-04T04:36:45;95362.22;;;-3.97;72.85
82379;BME280;72008;48.140;11.614;2023-12-04T04:37:46;95364.16;;;-4.20;70.76
82379;BME280;72008;48.140;11.614;2023-12-04T04:38:46;95359.38;;;-4.45;70.64
82379;BME280;72008;48.140;11.614;2023-12-04T04:39:46;95369.63;;;-4.59;67.70
82379;BME280;72008;48.140;11.614;2023-12-04T04:40:47;95362.44;;;-4.58;70.73
82379;BME280;72008;48.140;11.614;2023-12-04T04:41:47;95359.72;;;-4.36;75.33
82379;BME280;72008;48.140;11.614;2023-12-04T04:42:48;95359.16;;;-4.38;70.60
82379;BME280;72008;48.140;11.614;2023-12-04T04:43:48;95365.84;;;-4.41;69.75
82379;BME280;72008;48.140;11.614;2023-12-04T04:44:48;95368.50;;;-4.41;67.37
82379;BME280;72008;48.140;11.614;2023-12-04T04:45:49;95370.03;;;-4.23;75.48
82379;BME280;72008;48.140;11.614;2023-12-04T04:46:49;95373.28;;;-4.16;67.71
82379;BME280;72008;48.140;11.614;2023-12-04T04:47:50;95365.31;;;-4.10;71.96
82379;BME280;72008;48.140;11.614;2023-12-04T04:48:50;95363.63;;;-3.90;75.82
82379;BME280;72008;48.140;11.614;2023-12-04T04:49:50;95364.25;;;-3.77;69.21
82379;BME280;72008;48.140;11.614;2023-12-04T04:50:51;95367.06;;;-3.94;74.27
82379;BME280;72008;48.140;11.614;2023-12-04T04:51:51;95368.81;;;-3.73;75.28
82379;BME280;72008;48.140;11.614;2023-12-04T04:52:52;95368.69;;;-3.56;76.90
82379;BME280;72008;48.140;11.614;2023-12-04T04:53:52;95366.56;;;-3.54;73.68
82379;BME280;72008;48.140;11.614;2023-12-04T04:54:52;95364.22;;;-3.45;74.45
82379;BME280;72008;48.140;11.614;2023-12-04T04:55:54;95360.44;;;-3.54;68.82
82379;BME280;72008;48.140;11.614;2023-12-04T04:56:54;95368.97;;;-3.52;74.09
82379;BME280;72008;48.140;11.614;2023-12-04T04:57:54;95368.56;;;-3.39;77.34
82379;BME280;72008;48.140;11.614;2023-12-04T04:58:55;95369.69;;;-3.30;75.56
82379;BME280;72008;48.140;11.614;2023-12-04T04:59:56;95363.56;;;-3.20;78.95
82379;BME280;72008;48.140;11.614;2023-12-04T05:00:56;95361.19;;;-3.16;79.12
82379;BME280;72008;48.140;11.614;2023-12-04T05:01:57;95355.53;;;-3.25;76.40
82379;BME280;72008;48.140;11.614;2023-12-04T05:02:57;95359.72;;;-3.34;71.01
82379;BME280;72008;48.140;11.614;2023-12-04T05:03:57;95352.69;;;-3.51;68.99
82379;BME280;72008;48.140;11.614;2023-12-04T05:04:58;95349.72;;;-3.54;75.18
82379;BME280;72008;48.140;11.614;2023-12-04T05:05:58;95347.09;;;-3.44;75.10
82379;BME280;72008;48.140;11.614;2023-12-04T05:06:59;95344.56;;;-3.66;70.58
82379;BME280;72008;48.140;11.614;2023-12-04T05:07:59;95341.28;;;-3.73;74.66
82379;BME280;72008;48.140;11.614;2023-12-04T05:09:00;95338.91;;;-3.70;71.69
82379;BME280;72008;48.140;11.614;2023-12-04T05:10:00;95344.00;;;-3.68;71.28
82379;BME280;72008;48.140;11.614;2023-12-04T05:11:01;95331.66;;;-3.74;73.14
82379;BME280;72008;48.140;11.614;2023-12-04T05:12:01;95329.22;;;-3.76;74.92
82379;BME280;72008;48.140;11.614;2023-12-04T05:13:02;95322.59;;;-3.68;73.77
82379;BME280;72008;48.140;11.614;2023-12-04T05:14:02;95323.69;;;-3.64;73.79
82379;BME280;72008;48.140;11.614;2023-12-04T05:15:03;95320.72;;;-3.68;70.08
82379;BME280;72008;48.140;11.614;2023-12-04T05:16:04;95318.91;;;-3.62;72.46
82379;BME280;72008;48.140;11.614;2023-12-04T05:17:05;95321.63;;;-3.57;73.45
82379;BME280;72008;48.140;11.614;2023-12-04T05:18:05;95314.66;;;-3.53;73.91